Latest Coastal Weather Observations for Cato Island

IDQ60701

Issued at 8:01 am EST Thursday 23 March 2017 (issued every 10 minutes, with the page automatically refreshed every 10 minutes)

About coastal observations | Map of coastal stations | Coastal observations for QLD | Marine services | Other Formats
Station Details ID: 200601 Name: CATO ISLAND Lat: -23.25 Lon: 155.54 Height: 6.3 m
Data from the previous 72 hours. | See also: Recent months for locations in Queensland
Date/Time
EST
Temp
°C
Wind Pressure Rain since
9am
mm
Weather Cloud Vis
km
Sea
Height
m
Swell
Dir  Spd
kts
Gust
kts
hPa Trend Height
m
Period
s
Dir
23/08:00am 27.9 ENE 14 17 1014.7 - - - - - - - - -
23/07:30am 27.5 ENE 14 16 1014.4 - - - - - - - - -
23/07:00am 27.3 ENE 15 19 1013.9 - - - - - - - - -
23/06:30am 26.9 ENE 17 20 1013.4 - - - - - - - - -
23/06:00am 26.5 ENE 17 21 1013.2 - - - - - - - - -
23/05:30am 26.5 ENE 17 20 1013.1 - - - - - - - - -
23/05:00am 26.6 ENE 18 22 1012.9 - - - - - - - - -
23/04:30am 26.5 ENE 17 20 1012.6 - - - - - - - - -
23/04:00am 26.3 ENE 18 21 1012.5 - - - - - - - - -
23/03:30am 26.4 E 16 19 1012.5 - - - - - - - - -
23/03:00am 26.6 ENE 17 21 1012.6 - - - - - - - - -
23/02:30am 26.4 ENE 19 21 1012.5 - - - - - - - - -
23/02:00am 26.5 ENE 19 23 1012.8 - - - - - - - - -
23/01:30am 26.4 ENE 19 22 1012.9 - - - - - - - - -
23/01:00am 26.6 ENE 19 22 1013.3 - - - - - - - - -
23/12:30am 26.6 ENE 18 21 1013.6 - - - - - - - - -
23/12:00am 26.6 ENE 19 23 1013.8 - - - - - - - - -
 
Date/Time
EST
Temp
°C
Wind Pressure Rain since
9am
mm
Weather Cloud Vis
km
Sea
Height
m
Swell
Dir  Spd
kts
Gust
kts
hPa Trend Height
m
Period
s
Dir
22/11:30pm 26.7 ENE 19 22 1014.0 - - - - - - - - -
22/11:00pm 26.7 ENE 20 23 1014.1 - - - - - - - - -
22/10:30pm 26.7 ENE 18 21 1014.3 - - - - - - - - -
22/10:00pm 26.7 ENE 17 21 1014.6 - - - - - - - - -
22/09:30pm 26.9 ENE 16 19 1014.8 - - - - - - - - -
22/09:00pm 27.0 ENE 17 19 1014.8 - - - - - - - - -
22/08:30pm 27.0 ENE 17 21 1014.7 - - - - - - - - -
22/08:00pm 27.0 ENE 17 20 1014.5 - - - - - - - - -
22/07:30pm 26.8 ENE 15 18 1014.2 - - - - - - - - -
22/07:00pm 27.0 ENE 16 18 1014.0 - - - - - - - - -
22/06:30pm 26.9 ENE 15 19 1013.6 - - - - - - - - -
22/06:00pm 27.1 NE 14 17 1013.4 - - - - - - - - -
22/05:30pm 27.3 ENE 15 18 1013.1 - - - - - - - - -
22/05:00pm 27.4 ENE 14 16 1012.8 - - - - - - - - -
22/04:30pm 27.4 ENE 16 18 1012.5 - - - - - - - - -
22/04:00pm 27.8 ENE 16 19 1012.3 - - - - - - - - -
22/03:30pm 27.8 ENE 16 20 1012.2 - - - - - - - - -
22/03:00pm 27.9 ENE 16 18 1012.0 - - - - - - - - -
22/02:30pm 28.1 ENE 15 18 1012.3 - - - - - - - - -
22/02:00pm 28.4 ENE 16 19 1012.3 - - - - - - - - -
22/01:30pm 28.6 NE 16 19 1012.5 - - - - - - - - -
22/01:00pm 28.5 ENE 16 19 1012.8 - - - - - - - - -
22/12:30pm 28.9 NE 16 19 1013.0 - - - - - - - - -
22/12:00pm 28.6 ENE 18 21 1013.3 - - - - - - - - -
22/11:30am 28.8 ENE 18 21 1013.5 - - - - - - - - -
22/11:00am 29.0 ENE 18 21 1013.7 - - - - - - - - -
22/10:30am 28.7 NE 17 21 1014.0 - - - - - - - - -
22/10:00am 28.3 ENE 19 23 1014.2 - - - - - - - - -
22/09:30am 27.9 ENE 21 23 1014.1 - - - - - - - - -
22/09:00am 27.9 ENE 21 25 1014.3 - - - - - - - - -
22/08:30am 27.8 ENE 20 24 1014.3 - - - - - - - - -
22/08:00am 27.8 ENE 21 26 1014.2 - - - - - - - - -
22/07:30am 27.4 ENE 21 23 1014.0 - - - - - - - - -
22/07:00am 27.3 ENE 21 25 1013.6 - - - - - - - - -
22/06:30am 27.0 ENE 22 25 1013.1 - - - - - - - - -
22/06:00am 26.7 ENE 21 24 1013.0 - - - - - - - - -
22/05:30am 25.2 ENE 14 19 1012.9 - - - - - - - - -
22/05:00am 25.2 ENE 18 22 1012.8 - - - - - - - - -
22/04:58am 25.2 ENE 18 24 1012.8 - - - - - - - - -
22/04:30am 24.9 NE 22 31 1012.4 - - - - - - - - -
22/04:28am 25.2 NE 21 31 1012.3 - - - - - - - - -
22/04:00am 25.4 ENE 20 24 1012.4 - - - - - - - - -
22/03:30am 26.4 E 20 28 1012.2 - - - - - - - - -
22/03:00am 26.8 ENE 19 22 1012.1 - - - - - - - - -
22/02:30am 26.5 ENE 22 25 1012.2 - - - - - - - - -
22/02:00am 27.0 ENE 20 24 1012.6 - - - - - - - - -
22/01:30am 26.6 ENE 18 21 1012.8 - - - - - - - - -
22/01:00am 25.7 ENE 25 30 1013.2 - - - - - - - - -
22/12:30am 26.9 ENE 22 26 1013.2 - - - - - - - - -
22/12:00am 26.5 NE 16 23 1013.6 - - - - - - - - -
 
Date/Time
EST
Temp
°C
Wind Pressure Rain since
9am
mm
Weather Cloud Vis
km
Sea
Height
m
Swell
Dir  Spd
kts
Gust
kts
hPa Trend Height
m
Period
s
Dir
21/11:54pm 25.6 NE 18 29 1013.7 - - - - - - - - -
21/11:30pm 26.8 ENE 21 26 1013.9 - - - - - - - - -
21/11:00pm 26.3 ENE 21 28 1013.8 - - - - - - - - -
21/10:30pm 27.1 ENE 23 27 1014.0 - - - - - - - - -
21/10:00pm 27.2 E 23 27 1013.9 - - - - - - - - -
21/09:30pm 27.0 E 24 29 1013.8 - - - - - - - - -
21/09:00pm 27.2 E 24 28 1013.7 - - - - - - - - -
21/08:30pm 27.1 E 24 29 1013.8 - - - - - - - - -
21/08:00pm 27.3 E 24 28 1013.8 - - - - - - - - -
21/07:30pm 27.1 E 23 27 1013.6 - - - - - - - - -
21/07:00pm 27.2 E 24 27 1013.1 - - - - - - - - -
21/06:30pm 27.2 E 22 26 1012.9 - - - - - - - - -
21/06:00pm 27.2 E 21 25 1012.9 - - - - - - - - -
21/05:30pm 27.2 E 19 23 1012.8 - - - - - - - - -
21/05:00pm 27.4 ENE 20 23 1012.7 - - - - - - - - -
21/04:30pm 27.5 E 20 24 1012.7 - - - - - - - - -
21/04:00pm 27.6 E 19 22 1012.5 - - - - - - - - -
21/03:30pm 28.1 ENE 18 21 1012.5 - - - - - - - - -
21/03:00pm 28.3 ENE 16 19 1012.5 - - - - - - - - -
21/02:30pm 28.5 ENE 17 20 1012.4 - - - - - - - - -
21/02:00pm 28.9 ENE 17 19 1012.6 - - - - - - - - -
21/01:30pm 28.6 ENE 16 19 1012.9 - - - - - - - - -
21/01:00pm 28.3 ENE 16 19 1013.1 - - - - - - - - -
21/12:30pm 29.0 ENE 17 20 1013.5 - - - - - - - - -
21/12:00pm 28.7 NE 18 21 1013.8 - - - - - - - - -
21/11:30am 27.3 N 13 17 1014.3 - - - - - - - - -
21/11:00am 28.7 NE 19 22 1014.4 - - - - - - - - -
21/10:30am 28.3 ENE 21 24 1014.7 - - - - - - - - -
21/10:00am 28.7 ENE 19 23 1014.8 - - - - - - - - -
21/09:30am 28.3 ENE 21 24 1014.9 - - - - - - - - -
21/09:00am 27.9 ENE 20 25 1014.9 - - - - - - - - -
21/08:30am 27.4 E 21 25 1014.4 - - - - - - - - -
21/08:00am 27.4 ENE 22 25 1014.2 - - - - - - - - -
21/07:56am 27.4 ENE 22 25 1014.1 - - - - - - - - -
21/07:51am 27.6 WSW 23 25 1014.0 - - - - - - - - -
21/07:30am 27.0 E 21 25 1013.9 - - - - - - - - -
21/07:00am 26.9 E 21 25 1013.5 - - - - - - - - -
21/06:30am 26.6 E 18 21 1013.4 - - - - - - - - -
21/06:00am 26.2 E 16 19 1013.2 - - - - - - - - -
21/05:30am 26.3 ESE 18 20 1012.8 - - - - - - - - -
21/05:00am 26.5 ESE 20 24 1012.7 - - - - - - - - -
21/04:30am 26.8 E 17 22 1012.5 - - - - - - - - -
21/04:00am 26.8 E 17 19 1012.3 - - - - - - - - -
21/03:30am 26.7 E 18 22 1012.2 - - - - - - - - -
21/03:00am 26.9 E 19 22 1012.3 - - - - - - - - -
21/02:30am 26.6 E 20 23 1012.4 - - - - - - - - -
21/02:00am 26.8 E 20 23 1012.5 - - - - - - - - -
21/01:30am 26.9 E 19 21 1012.7 - - - - - - - - -
21/01:00am 26.5 E 18 22 1012.7 - - - - - - - - -
21/12:30am 26.4 E 21 27 1012.9 - - - - - - - - -
21/12:00am 26.9 E 17 20 1013.2 - - - - - - - - -
 
Date/Time
EST
Temp
°C
Wind Pressure Rain since
9am
mm
Weather Cloud Vis
km
Sea
Height
m
Swell
Dir  Spd
kts
Gust
kts
hPa Trend Height
m
Period
s
Dir
20/11:30pm 26.9 E 19 22 1013.6 - - - - - - - - -
20/11:00pm 26.8 E 21 25 1013.6 - - - - - - - - -
20/10:30pm 26.8 E 22 25 1013.8 - - - - - - - - -
20/10:00pm 26.9 E 21 24 1013.8 - - - - - - - - -
20/09:30pm 26.9 E 22 27 1013.8 - - - - - - - - -
20/09:00pm 26.9 E 22 26 1013.7 - - - - - - - - -
20/08:30pm 26.8 E 23 27 1013.5 - - - - - - - - -
20/08:00pm 26.8 E 23 27 1013.3 - - - - - - - - -
20/07:30pm 26.8 E 25 28 1012.9 - - - - - - - - -
20/07:00pm 26.8 E 24 27 1012.8 - - - - - - - - -
20/06:30pm 26.9 E 24 26 1012.8 - - - - - - - - -
20/06:00pm 27.1 E 23 26 1012.7 - - - - - - - - -
20/05:30pm 27.3 E 22 26 1012.7 - - - - - - - - -
20/05:00pm 27.1 E 22 25 1012.7 - - - - - - - - -
20/04:30pm 27.5 E 20 24 1012.6 - - - - - - - - -
20/04:00pm 27.7 E 22 25 1012.5 - - - - - - - - -
20/03:30pm 27.8 E 20 24 1012.5 - - - - - - - - -
20/03:00pm 27.8 E 21 24 1012.5 - - - - - - - - -
20/02:30pm 27.7 E 21 23 1012.6 - - - - - - - - -
20/02:00pm 27.9 E 20 25 1012.8 - - - - - - - - -
20/01:30pm 27.7 E 21 24 1013.1 - - - - - - - - -
20/01:00pm 28.5 ENE 20 22 1013.3 - - - - - - - - -
20/12:30pm 28.1 E 20 23 1013.5 - - - - - - - - -
20/12:00pm 28.1 E 21 25 1013.8 - - - - - - - - -
20/11:30am 28.2 E 21 25 1014.2 - - - - - - - - -
20/11:00am 28.2 E 23 26 1014.5 - - - - - - - - -
20/10:30am 28.0 E 22 25 1014.9 - - - - - - - - -
20/10:00am 28.2 E 22 27 1015.2 - - - - - - - - -
20/09:30am 27.9 E 24 28 1015.1 - - - - - - - - -
20/09:00am 27.7 E 23 27 1015.0 - - - - - - - - -
20/08:30am 27.6 E 23 26 1015.0 - - - - - - - - -

Other Formats:

Comma delimited format used in spreadsheet applications
http://www.bom.gov.au/fwo/IDQ60701/IDQ60701.94394.axf

JavaScript Object Notation format (JSON) in row-major order
http://www.bom.gov.au/fwo/IDQ60701/IDQ60701.94394.json